createdAt,value
2022-09-16T03:12:25.196Z,15.96
2022-09-16T03:14:59.337Z,15.92
2022-09-16T03:17:44.671Z,15.94
2022-09-16T03:20:34.403Z,15.93
2022-09-16T03:23:35.491Z,15.90
2022-09-16T03:26:29.471Z,15.85
2022-09-16T03:29:25.349Z,15.90
2022-09-16T03:31:51.707Z,15.77
2022-09-16T03:34:35.291Z,15.87
2022-09-16T03:37:08.103Z,15.81
2022-09-16T03:39:35.755Z,15.77
2022-09-16T03:42:04.603Z,15.77
2022-09-16T03:44:36.491Z,15.84
2022-09-16T03:47:03.905Z,15.80
2022-09-16T03:49:30.535Z,15.80
2022-09-16T03:51:57.232Z,16.13
2022-09-16T03:54:23.695Z,15.86
2022-09-16T03:56:50.353Z,15.85
2022-09-16T03:59:17.344Z,16.16
2022-09-16T04:01:43.963Z,15.92
2022-09-16T04:04:10.416Z,16.19
2022-09-16T04:06:36.840Z,15.91
2022-09-16T04:09:06.247Z,15.90
2022-09-16T04:11:32.945Z,15.88
2022-09-16T04:13:59.499Z,16.20
2022-09-16T04:16:26.284Z,15.94
2022-09-16T04:18:53.156Z,15.92
2022-09-16T04:21:19.880Z,15.91
2022-09-16T04:23:46.308Z,15.92
2022-09-16T04:26:12.754Z,15.95
2022-09-16T04:28:39.268Z,15.96
2022-09-16T04:31:10.225Z,16.01
2022-09-16T04:33:36.919Z,15.99
2022-09-16T04:36:04.089Z,16.34
2022-09-16T04:38:30.709Z,16.09
2022-09-16T04:41:07.556Z,16.39
2022-09-16T04:43:34.562Z,16.12
2022-09-16T04:46:01.998Z,16.10
2022-09-16T04:48:29.331Z,16.13
2022-09-16T04:51:09.472Z,16.20
2022-09-16T04:53:36.770Z,16.16
2022-09-16T04:56:15.863Z,16.24
2022-09-16T04:58:50.365Z,16.16
2022-09-16T05:01:19.367Z,16.17
2022-09-16T05:03:47.766Z,16.15
2022-09-16T05:06:25.777Z,16.19
2022-09-16T05:08:54.019Z,16.09
2022-09-16T05:11:23.994Z,16.08
2022-09-16T05:13:50.472Z,16.03
2022-09-16T05:16:19.356Z,16.04
2022-09-16T05:18:47.728Z,16.01
2022-09-16T05:21:20.325Z,16.03
2022-09-16T05:23:47.444Z,15.96
2022-09-16T05:26:17.172Z,15.97
2022-09-16T05:28:43.772Z,15.94
2022-09-16T05:31:11.310Z,16.25
2022-09-16T05:33:39.465Z,15.98
2022-09-16T05:36:11.919Z,15.98
2022-09-16T05:38:38.583Z,15.92
2022-09-16T05:41:05.311Z,16.23
2022-09-16T05:43:33.031Z,15.96
2022-09-16T05:45:59.947Z,15.92
2022-09-16T05:48:26.461Z,15.92
2022-09-16T05:50:57.325Z,15.92
2022-09-16T05:53:25.230Z,15.89
2022-09-16T05:55:55.364Z,15.94
2022-09-16T05:58:22.257Z,15.91
2022-09-16T06:00:48.696Z,15.90
2022-09-16T06:03:15.175Z,15.91
2022-09-16T06:05:45.664Z,15.92
2022-09-16T06:08:12.425Z,15.92
2022-09-16T06:10:40.499Z,15.95
2022-09-16T06:13:07.247Z,15.94
2022-09-16T06:15:34.255Z,15.96
2022-09-16T06:18:05.548Z,15.97
2022-09-16T06:20:32.881Z,15.97
2022-09-16T06:22:59.320Z,16.00
2022-09-16T06:25:25.884Z,16.02
2022-09-16T06:27:52.321Z,16.05
2022-09-16T06:30:18.761Z,16.07
2022-09-16T06:32:45.317Z,16.08
2022-09-16T06:35:11.676Z,16.37
2022-09-16T06:37:38.139Z,16.12
2022-09-16T06:40:05.097Z,16.12
2022-09-16T06:42:32.053Z,16.13
2022-09-16T06:44:58.710Z,16.13
2022-09-16T06:47:25.067Z,16.46
2022-09-16T06:49:51.654Z,16.21
2022-09-16T06:52:19.239Z,16.49
2022-09-16T06:54:47.359Z,16.25
2022-09-16T06:57:13.844Z,16.26
2022-09-16T06:59:40.421Z,16.30
2022-09-16T07:02:06.784Z,16.62
2022-09-16T07:04:33.300Z,16.42
2022-09-16T07:07:15.034Z,16.44
2022-09-16T07:09:41.598Z,16.48
2022-09-16T07:12:08.105Z,16.78
2022-09-16T07:14:34.686Z,16.58
2022-09-16T07:17:01.857Z,16.87
2022-09-16T07:19:28.802Z,16.68
2022-09-16T07:21:55.317Z,16.68
2022-09-16T07:24:21.789Z,16.71
2022-09-16T07:26:48.262Z,16.78
2022-09-16T07:29:17.221Z,16.83
2022-09-16T07:31:44.042Z,16.85
2022-09-16T07:34:12.247Z,16.92
2022-09-16T07:36:40.747Z,16.98
2022-09-16T07:39:08.131Z,17.03
2022-09-16T07:41:40.232Z,17.11
2022-09-16T07:44:08.083Z,17.15
2022-09-16T07:46:36.499Z,17.22
2022-09-16T07:49:05.233Z,17.28
2022-09-16T07:51:32.237Z,17.32
2022-09-16T07:54:02.364Z,17.40
2022-09-16T07:56:31.357Z,17.44
2022-09-16T07:58:58.357Z,17.48
2022-09-16T08:01:25.203Z,17.54
2022-09-16T08:03:52.049Z,17.64
2022-09-16T08:06:24.434Z,17.73
2022-09-16T08:08:55.202Z,17.76
2022-09-16T08:11:22.618Z,17.78
2022-09-16T08:13:49.469Z,17.81
2022-09-16T08:16:18.772Z,17.87
2022-09-16T08:18:46.809Z,17.90
2022-09-16T08:21:20.414Z,18.01
2022-09-16T08:23:47.604Z,18.01
2022-09-16T08:26:15.398Z,18.06
2022-09-16T08:29:07.447Z,18.11
2022-09-16T08:31:30.034Z,18.20
2022-09-16T08:33:56.598Z,18.22
2022-09-16T08:36:24.230Z,18.54
2022-09-16T08:38:54.360Z,18.37
2022-09-16T08:41:26.225Z,18.45
2022-09-16T08:44:04.487Z,18.50
2022-09-16T08:46:52.300Z,18.58
2022-09-16T08:49:34.027Z,18.61
2022-09-16T08:52:04.784Z,18.65
2022-09-16T08:54:59.451Z,18.82
2022-09-16T08:57:30.422Z,18.84
2022-09-16T09:00:05.210Z,18.95
2022-09-16T09:05:16.945Z,19.09
2022-09-16T09:08:30.906Z,19.26
2022-09-16T09:11:07.971Z,19.28
2022-09-16T09:13:53.168Z,19.56
2022-09-16T09:16:41.454Z,19.45
2022-09-16T09:19:13.915Z,19.53
2022-09-16T09:21:49.483Z,19.58
2022-09-16T09:24:22.307Z,19.63
2022-09-16T09:26:58.494Z,19.65
2022-09-16T09:29:34.357Z,19.70
2022-09-16T09:32:18.076Z,19.81
2022-09-16T09:34:57.551Z,19.84
2022-09-16T09:37:42.261Z,19.90
2022-09-16T09:40:40.826Z,19.95
2022-09-16T09:43:42.064Z,20.00
2022-09-16T09:46:12.420Z,19.99
2022-09-16T09:48:46.985Z,19.96
2022-09-16T09:51:17.674Z,20.00
2022-09-16T09:53:49.747Z,20.04
2022-09-16T09:56:30.454Z,20.13
2022-09-16T09:59:30.481Z,20.27
2022-09-16T10:01:58.413Z,20.19
2022-09-16T10:04:25.053Z,20.26
2022-09-16T10:06:54.523Z,20.35
2022-09-16T10:09:22.598Z,20.42
2022-09-16T10:11:55.521Z,20.53
2022-09-16T10:14:25.921Z,20.60
2022-09-16T10:16:53.701Z,20.68
2022-09-16T10:19:24.203Z,20.77
2022-09-16T10:21:56.254Z,20.85
2022-09-16T10:24:44.741Z,20.93
2022-09-16T10:27:24.045Z,20.90
2022-09-16T10:30:15.185Z,20.91
2022-09-16T10:32:59.661Z,20.86
2022-09-16T10:35:29.113Z,20.74
2022-09-16T10:38:01.466Z,20.78
2022-09-16T10:40:28.435Z,20.72
2022-09-16T10:42:59.901Z,20.70
2022-09-16T10:45:29.724Z,20.63
2022-09-16T10:48:04.899Z,20.59
2022-09-16T10:50:33.596Z,20.51
2022-09-16T10:52:59.998Z,20.80
2022-09-16T10:55:38.669Z,20.58
2022-09-16T10:58:23.026Z,20.63
2022-09-16T11:00:54.794Z,20.62
2022-09-16T11:03:30.256Z,20.65
2022-09-16T11:06:07.402Z,20.64
2022-09-16T11:08:42.733Z,20.76
2022-09-16T11:14:09.424Z,21.04
2022-09-16T11:16:54.895Z,21.02
2022-09-16T11:20:18.860Z,21.11
2022-09-16T11:23:23.819Z,21.15
2022-09-16T11:26:11.997Z,21.18
2022-09-16T11:29:23.122Z,21.31
2022-09-16T11:32:28.197Z,21.33
2022-09-16T11:35:19.560Z,21.26
2022-09-16T11:38:29.455Z,21.40
2022-09-16T11:41:04.294Z,21.37
2022-09-16T11:44:08.602Z,21.53
2022-09-16T11:46:43.922Z,21.59
2022-09-16T11:49:25.919Z,21.68
2022-09-16T11:52:15.491Z,21.71
2022-09-16T11:54:58.029Z,21.81
2022-09-16T11:57:29.788Z,21.88
2022-09-16T12:00:17.310Z,22.03
2022-09-16T12:02:51.521Z,22.25
2022-09-16T12:05:24.130Z,22.11
2022-09-16T12:08:22.861Z,22.19
2022-09-16T12:10:56.968Z,22.13
2022-09-16T12:13:34.761Z,22.14
2022-09-16T12:16:05.385Z,22.07
2022-09-16T12:18:38.462Z,22.11
2022-09-16T12:21:10.755Z,22.06
2022-09-16T12:23:48.150Z,22.07
2022-09-16T12:26:19.996Z,22.12
2022-09-16T12:29:20.411Z,22.23
2022-09-16T12:31:53.780Z,22.12
2022-09-16T12:34:25.755Z,22.13
2022-09-16T12:37:03.545Z,22.24
2022-09-16T12:39:30.037Z,22.26
2022-09-16T12:42:03.479Z,22.38
2022-09-16T12:44:57.728Z,22.52
2022-09-16T12:47:39.755Z,22.59
2022-09-16T12:50:44.665Z,22.72
2022-09-16T12:53:38.777Z,22.70
2022-09-16T12:56:27.172Z,22.70
2022-09-16T12:59:32.017Z,22.62
2022-09-16T13:02:15.677Z,22.46
2022-09-16T13:04:54.358Z,22.18
2022-09-16T13:07:34.306Z,21.89
2022-09-16T13:10:07.387Z,21.66
2022-09-16T13:12:42.808Z,21.38
2022-09-16T13:15:24.381Z,21.38
2022-09-16T13:17:53.251Z,21.19
2022-09-16T13:20:30.178Z,21.23
2022-09-16T13:23:12.167Z,21.26
2022-09-16T13:26:02.788Z,21.33
2022-09-16T13:28:32.280Z,21.33
2022-09-16T13:31:19.930Z,21.41
2022-09-16T13:33:47.793Z,21.38
2022-09-16T13:36:20.261Z,21.40
2022-09-16T13:38:52.023Z,21.43
2022-09-16T13:41:42.630Z,21.60
2022-09-16T13:44:27.910Z,21.62
2022-09-16T13:46:54.440Z,21.50
2022-09-16T13:49:25.624Z,21.54
2022-09-16T13:51:52.776Z,21.53
2022-09-16T13:55:06.309Z,21.68
2022-09-16T13:57:55.327Z,21.64
2022-09-16T14:00:36.156Z,21.63
2022-09-16T14:03:22.508Z,21.72
2022-09-16T14:06:03.768Z,21.69
2022-09-16T14:08:44.478Z,21.75
2022-09-16T14:11:22.728Z,21.75
2022-09-16T14:14:00.827Z,21.73
2022-09-16T14:16:34.399Z,21.71
2022-09-16T14:19:24.243Z,21.75
2022-09-16T14:22:18.169Z,21.78
2022-09-16T14:24:46.364Z,21.64
2022-09-16T14:27:22.864Z,21.65
2022-09-16T14:30:00.256Z,21.63
2022-09-16T14:32:32.833Z,21.53
2022-09-16T14:35:04.340Z,21.44
2022-09-16T14:37:32.286Z,21.38
2022-09-16T14:40:07.073Z,21.44
2022-09-16T14:42:34.013Z,21.41
2022-09-16T14:45:00.640Z,21.45
2022-09-16T14:47:50.495Z,21.51
2022-09-16T14:50:24.450Z,21.55
2022-09-16T14:52:58.209Z,21.55
2022-09-16T14:55:33.587Z,21.56
2022-09-16T14:58:00.530Z,21.49
2022-09-16T15:00:39.110Z,21.52
2022-09-16T15:03:48.030Z,21.58
2022-09-16T15:06:19.510Z,21.40
2022-09-16T15:09:05.702Z,21.39
2022-09-16T15:11:47.631Z,21.24
2022-09-16T15:14:16.141Z,21.13
2022-09-16T15:16:47.758Z,21.10
2022-09-16T15:19:21.698Z,20.99
2022-09-16T15:21:49.190Z,20.70
2022-09-16T15:24:24.991Z,20.59
2022-09-16T15:26:53.800Z,20.31
2022-09-16T15:29:20.707Z,20.06
2022-09-16T15:31:47.692Z,19.83
2022-09-16T15:34:18.675Z,19.67
2022-09-16T15:36:47.671Z,19.46
2022-09-16T15:39:24.727Z,19.36
2022-09-16T15:42:02.448Z,19.52
2022-09-16T15:44:32.758Z,19.00
2022-09-16T15:47:05.194Z,18.83
2022-09-16T15:49:38.216Z,18.61
2022-09-16T15:52:12.144Z,18.50
2022-09-16T15:54:51.222Z,18.35
2022-09-16T15:57:29.827Z,18.24
2022-09-16T16:00:14.760Z,18.17
2022-09-16T16:02:46.777Z,17.97
2022-09-16T16:05:21.935Z,17.89
2022-09-16T16:07:54.602Z,17.83
2022-09-16T16:10:24.523Z,17.71
2022-09-16T16:12:53.031Z,17.63
2022-09-16T16:15:22.560Z,17.60
2022-09-16T16:17:50.268Z,17.54
2022-09-16T16:20:18.218Z,17.50
2022-09-16T16:22:45.702Z,17.48
2022-09-16T16:25:13.780Z,17.46
2022-09-16T16:27:40.836Z,17.44
2022-09-16T16:30:08.541Z,17.38
2022-09-16T16:32:35.165Z,17.36
2022-09-16T16:35:01.891Z,17.73
2022-09-16T16:37:45.334Z,17.39
2022-09-16T16:40:14.315Z,17.35
2022-09-16T16:42:43.141Z,17.32
2022-09-16T16:45:10.929Z,17.27
2022-09-16T16:47:37.423Z,17.24
2022-09-16T16:50:04.177Z,17.24
2022-09-16T16:52:30.709Z,17.18
2022-09-16T16:54:57.190Z,17.21
2022-09-16T16:57:23.852Z,17.18
2022-09-16T16:59:50.405Z,17.50
2022-09-16T17:02:16.936Z,17.19
2022-09-16T17:04:43.337Z,17.50
2022-09-16T17:07:27.654Z,17.19
2022-09-16T17:09:55.630Z,17.13
2022-09-16T17:12:22.200Z,17.08
2022-09-16T17:14:48.733Z,17.08
2022-09-16T17:17:15.537Z,17.07
2022-09-16T17:19:42.074Z,17.00
2022-09-16T17:22:08.527Z,17.34
2022-09-16T17:24:35.135Z,17.03
2022-09-16T17:27:02.052Z,17.34
2022-09-16T17:29:28.657Z,17.02
2022-09-16T17:31:57.232Z,16.98
2022-09-16T17:34:26.494Z,16.93
2022-09-16T17:36:53.154Z,16.91
2022-09-16T17:39:20.912Z,16.92
2022-09-16T17:41:48.885Z,16.89
2022-09-16T17:44:16.594Z,16.89
2022-09-16T17:46:43.587Z,16.86
2022-09-16T17:49:18.728Z,16.91
2022-09-16T17:51:45.360Z,16.83
2022-09-16T17:54:11.902Z,17.18
2022-09-16T17:56:39.086Z,16.89
2022-09-16T17:59:05.915Z,16.88
2022-09-16T18:01:32.503Z,16.86
2022-09-16T18:03:59.140Z,17.19
2022-09-16T18:06:28.344Z,16.92
2022-09-16T18:08:55.458Z,16.91
2022-09-16T18:11:22.747Z,16.91
2022-09-16T18:13:54.414Z,16.96
2022-09-16T18:16:22.121Z,16.89
2022-09-16T18:18:54.087Z,16.98
2022-09-16T18:21:23.113Z,16.94
2022-09-16T18:23:56.932Z,17.02
2022-09-16T18:26:24.351Z,16.90
2022-09-16T18:29:09.124Z,16.98
2022-09-16T18:31:37.025Z,16.99
2022-09-16T18:34:03.574Z,17.00
2022-09-16T18:36:30.529Z,17.33
2022-09-16T18:38:58.304Z,17.03
2022-09-16T18:41:27.223Z,17.02
2022-09-16T18:43:59.288Z,17.06
2022-09-16T18:46:31.210Z,17.02
2022-09-16T18:48:59.160Z,17.00
2022-09-16T18:51:36.995Z,17.07
2022-09-16T18:54:10.336Z,17.05
2022-09-16T18:56:38.944Z,16.99
2022-09-16T18:59:21.149Z,16.96
2022-09-16T19:01:49.913Z,16.94
2022-09-16T19:04:19.700Z,16.96
2022-09-16T19:06:49.355Z,16.94
2022-09-16T19:09:17.803Z,16.90
2022-09-16T19:11:44.644Z,16.86
2022-09-16T19:14:14.110Z,16.83
2022-09-16T19:16:42.397Z,16.83
2022-09-16T19:19:11.291Z,16.76
2022-09-16T19:21:38.534Z,16.75
2022-09-16T19:24:07.201Z,16.72
2022-09-16T19:26:35.848Z,16.69
2022-09-16T19:29:03.091Z,16.61
2022-09-16T19:31:31.445Z,16.62
2022-09-16T19:33:59.419Z,16.57
2022-09-16T19:36:28.202Z,16.57
2022-09-16T19:38:55.624Z,16.50
2022-09-16T19:41:25.308Z,16.53
2022-09-16T19:43:55.985Z,16.46
2022-09-16T19:46:22.891Z,16.42
2022-09-16T19:48:49.803Z,16.39
2022-09-16T19:51:19.288Z,16.38
2022-09-16T19:53:49.223Z,16.34
2022-09-16T19:56:18.509Z,16.30
2022-09-16T19:58:45.767Z,16.25
2022-09-16T20:01:15.028Z,16.23
2022-09-16T20:03:45.393Z,16.18
2022-09-16T20:06:15.693Z,16.16
2022-09-16T20:08:43.992Z,16.11
2022-09-16T20:11:12.178Z,16.06
2022-09-16T20:13:39.518Z,15.98
2022-09-16T20:16:08.614Z,15.96
2022-09-16T20:18:36.655Z,15.96
2022-09-16T20:21:07.345Z,15.90
2022-09-16T20:23:34.921Z,15.84
2022-09-16T20:26:03.938Z,15.83
2022-09-16T20:28:31.961Z,15.81
2022-09-16T20:30:58.722Z,15.80
2022-09-16T20:33:28.039Z,15.79
2022-09-16T20:36:06.529Z,15.83
2022-09-16T20:38:34.444Z,15.71
2022-09-16T20:41:15.142Z,15.79
2022-09-16T20:43:41.981Z,15.73
2022-09-16T20:46:14.633Z,15.73
2022-09-16T20:48:42.599Z,15.69
2022-09-16T20:51:11.638Z,15.70
2022-09-16T20:53:39.561Z,15.70
2022-09-16T20:56:14.618Z,15.75
2022-09-16T20:58:42.774Z,15.68
2022-09-16T21:01:27.624Z,15.79
2022-09-16T21:03:59.655Z,15.71
2022-09-16T21:06:27.487Z,15.66
2022-09-16T21:08:55.843Z,15.65
2022-09-16T21:11:23.342Z,15.64
2022-09-16T23:59:37.302Z,15.36
